Robert E. Mcallister — WDC8669 — position and weather

sailwx.info

Track history (hours):
 
Tides and Currents Weather Stations Pressure Air Temp Water Temp Dewpoint Dewpoint Depression Visibility Wind Speed Wind Dir Waves Ship Positions

Robert E. Mcallister

Owner: McAllister Towing & Transportation, Staten Island, NY. More information available from US FCC via Universal Licensing System and Coast Guard Vessel Documentation Center.

Last reported at 2016-Apr-25 16:25 UTC. Time now 2016-May-02 05:51 UTC.
Position N 40°38' W 074°10'.

Length 34 m; draft 4.3 m.

Type: Tug. MMSI: 367091120.

Date/timePositionNaut miles runAvg speedWind from/ knotsBaromVisibWave heightAir tempDewpointWater temp
2016-Apr-25 16:25N 40°38' W 074°10'0 0.0
2016-Apr-25 15:32N 40°38' W 074°10'0 0.0
2016-Apr-25 14:29N 40°38' W 074°10'0 0.0
2016-Apr-25 13:33N 40°38' W 074°10'0 0.0
2016-Apr-25 12:30N 40°38' W 074°10'0 0.0
2016-Apr-25 11:29N 40°38' W 074°10'0 0.0
2016-Apr-25 10:33N 40°38' W 074°10'0 0.0
2016-Apr-25 09:33N 40°38' W 074°10'0 0.0
2016-Apr-25 08:33N 40°38' W 074°10'0 0.0
2016-Apr-25 07:25N 40°38' W 074°10'0 0.0
2016-Apr-25 06:33N 40°38' W 074°10'0 0.0
2016-Apr-25 05:32N 40°38' W 074°10'0 0.0
2016-Apr-25 04:22N 40°38' W 074°10'0 0.0
2016-Apr-25 03:33N 40°38' W 074°10'0 0.0
2016-Apr-25 02:33N 40°38' W 074°10'0 0.0
2016-Apr-25 01:31N 40°38' W 074°10'0 0.0
2016-Apr-25 00:31N 40°38' W 074°10'0 0.0
2016-Apr-24 23:30N 40°38' W 074°10'0 0.0
2016-Apr-24 22:32N 40°38' W 074°10'0 0.0
2016-Apr-24 20:22N 40°38' W 074°10'0 0.0
2016-Apr-24 19:26N 40°38' W 074°10'0 0.0
2016-Apr-24 18:31N 40°38' W 074°10'0 0.0
2016-Apr-24 17:27N 40°38' W 074°10'0 0.0
2016-Apr-24 16:33N 40°38' W 074°10'0 0.0
2016-Apr-24 15:33N 40°38' W 074°10'0 0.0
2016-Apr-24 14:23N 40°38' W 074°10'0 0.0
2016-Apr-24 13:32N 40°38' W 074°10'0 0.0
2016-Apr-24 12:32N 40°38' W 074°10'0 0.0
2016-Apr-24 11:29N 40°38' W 074°10'0 0.0
2016-Apr-24 03:22N 40°38' W 074°10'0 0.0
2016-Apr-23 22:05N 40°38' W 074°10'0 0.0
2016-Apr-23 21:33N 40°38' W 074°10'0 0.0
2016-Apr-23 20:33N 40°38' W 074°10'0 0.0
2016-Apr-23 19:33N 40°38' W 074°10'0 0.0
2016-Apr-23 18:33N 40°38' W 074°10'0 0.0
2016-Apr-23 17:33N 40°38' W 074°10'0 0.0
2016-Apr-23 16:33N 40°38' W 074°10'0 0.0
2016-Apr-23 15:33N 40°38' W 074°10'0 0.0
2016-Apr-23 14:33N 40°38' W 074°10'0 0.0
2016-Apr-23 13:25N 40°38' W 074°10'0 0.0
2016-Apr-23 12:33N 40°38' W 074°10'0 0.0
2016-Apr-22 20:27N 40°38' W 074°09'1 0.3
2016-Apr-22 16:32N 40°40' W 074°09'1 1.1
2016-Apr-22 15:33N 40°41' W 074°08'3 2.6
2016-Apr-22 14:33N 40°39' W 074°06'3 0.9
2016-Apr-22 11:27N 40°38' W 074°10'5 5.8
2016-Apr-22 10:33N 40°39' W 074°03'1 1.0
2016-Apr-22 09:33N 40°40' W 074°04'5 4.3
2016-Apr-22 08:30N 40°38' W 074°10'1 1.4
2016-Apr-22 07:33N 40°39' W 074°09'0 0.2
2016-Apr-22 06:33N 40°40' W 074°09'1 1.1
2016-Apr-22 05:33N 40°39' W 074°08'3 3.2
2016-Apr-22 04:33N 40°40' W 074°05'4 3.0
2016-Apr-22 03:11N 40°38' W 074°10'3 1.2
2016-Apr-22 00:33N 40°41' W 074°08'1 1.0
2016-Apr-21 23:33N 40°40' W 074°08'1 1.1
2016-Apr-21 22:32N 40°39' W 074°09'0 0.3
2016-Apr-21 21:29N 40°40' W 074°09'1 0.5
2016-Apr-21 18:31N 40°38' W 074°10'0 0.1
2016-Apr-21 16:20N 40°39' W 074°10'2 0.3
2016-Apr-21 11:32N 40°38' W 074°12'2 1.2
2016-Apr-21 10:14N 40°38' W 074°10'1 1.9
2016-Apr-21 09:33N 40°39' W 074°09'2 1.8
2016-Apr-21 08:28N 40°41' W 074°09'3 0.6
2016-Apr-21 03:27N 40°38' W 074°10'1 0.6
2016-Apr-21 02:31N 40°39' W 074°10'2 2.6
2016-Apr-21 01:33N 40°39' W 074°07'2 1.9
2016-Apr-21 00:33N 40°40' W 074°08'0 0.2
2016-Apr-20 23:33N 40°40' W 074°08'1 1.2
2016-Apr-20 22:33N 40°41' W 074°09'1 1.0
2016-Apr-20 21:33N 40°41' W 074°08'3 3.0
2016-Apr-20 20:33N 40°39' W 074°05'1 1.4
2016-Apr-20 19:33N 40°38' W 074°04'4 3.5
2016-Apr-20 18:17N 40°38' W 074°10'0 0.0
2016-Apr-20 17:30N 40°38' W 074°10'0 0.0
2016-Apr-20 16:33N 40°38' W 074°10'0 0.0
2016-Apr-20 15:33N 40°38' W 074°10'0 0.0
2016-Apr-20 14:32N 40°38' W 074°10'0 0.0
2016-Apr-20 13:33N 40°38' W 074°10'0 0.0
2016-Apr-20 12:31N 40°38' W 074°10'3 2.5
2016-Apr-20 11:26N 40°41' W 074°09'1 1.3
2016-Apr-20 10:33N 40°40' W 074°08'2 1.7
2016-Apr-20 09:33N 40°39' W 074°07'3 3.3
2016-Apr-20 08:32N 40°37' W 074°03'3 3.4
2016-Apr-20 07:33N 40°39' W 074°07'2 1.8
2016-Apr-20 06:20N 40°38' W 074°10'0 0.0
2016-Apr-20 05:30N 40°38' W 074°10'0 0.0
2016-Apr-20 02:26N 40°38' W 074°10'0 0.0
2016-Apr-20 01:33N 40°38' W 074°10'0 0.0
2016-Apr-20 00:31N 40°38' W 074°10'0 0.0
2016-Apr-19 23:31N 40°38' W 074°10'0 0.0
2016-Apr-19 22:31N 40°38' W 074°10'1 1.2
2016-Apr-19 21:32N 40°38' W 074°11'0 0.1
2016-Apr-19 20:33N 40°38' W 074°12'3 0.3
2016-Apr-19 12:21N 40°36' W 074°12'0 0.0
2016-Apr-19 11:32N 40°36' W 074°12'3 2.9
2016-Apr-19 10:31N 40°39' W 074°11'6 6.2
2016-Apr-19 09:33N 40°39' W 074°03'5 4.9
2016-Apr-19 08:33N 40°38' W 074°10'0 0.0
2016-Apr-19 07:32N 40°38' W 074°10'0 0.0
2016-Apr-19 06:33N 40°38' W 074°10'0 0.0
2016-Apr-19 05:33N 40°38' W 074°10'4 4.1
2016-Apr-19 04:33N 40°40' W 074°05'2 1.7
2016-Apr-19 03:33N 40°39' W 074°03'6 4.7
2016-Apr-19 02:13N 40°38' W 074°12'1 0.4
2016-Apr-18 23:22N 40°38' W 074°10'3 3.0
2016-Apr-18 22:31N 40°41' W 074°08'1 0.9
2016-Apr-18 21:03N 40°42' W 074°09'2 3.4
2016-Apr-18 20:23N 40°39' W 074°09'0 0.2
2016-Apr-18 19:33N 40°40' W 074°09'0 0.2
2016-Apr-18 18:16N 40°40' W 074°09'1 1.7
2016-Apr-18 17:33N 40°39' W 074°08'3 3.2
2016-Apr-18 16:33N 40°40' W 074°05'0 0.2
2016-Apr-18 15:33N 40°40' W 074°04'2 2.0
2016-Apr-18 14:33N 40°39' W 074°06'3 2.7
2016-Apr-18 13:33N 40°38' W 074°10'0 0.0
2016-Apr-18 12:33N 40°38' W 074°10'2 1.1
2016-Apr-18 10:25N 40°41' W 074°09'2 1.8
2016-Apr-18 09:18N 40°39' W 074°08'4 5.5
2016-Apr-18 08:34N 40°38' W 074°03'5 1.0
2016-Apr-18 03:16N 40°38' W 074°10'0 0.3
2016-Apr-18 01:31N 40°39' W 074°09'1 0.9
2016-Apr-18 00:34N 40°40' W 074°09'0 0.0
2016-Apr-17 23:34N 40°40' W 074°09'0 0.0
2016-Apr-17 22:34N 40°40' W 074°09'0 0.0
2016-Apr-17 21:32N 40°40' W 074°09'0 0.0
2016-Apr-17 16:34N 40°40' W 074°09'1 0.3
2016-Apr-17 14:33N 40°39' W 074°09'2 1.8
2016-Apr-17 13:33N 40°41' W 074°09'0 0.0
2016-Apr-17 12:33N 40°41' W 074°09'3 0.8
2016-Apr-17 08:03N 40°38' W 074°12'2 3.1
2016-Apr-17 07:34N 40°38' W 074°10'0 0.0
2016-Apr-17 06:33N 40°38' W 074°10'0 0.0
2016-Apr-17 05:33N 40°38' W 074°10'0 0.0
2016-Apr-17 04:33N 40°38' W 074°10'0 0.0
2016-Apr-17 03:33N 40°38' W 074°10'0 0.0
2016-Apr-17 02:31N 40°38' W 074°10'0 0.0
2016-Apr-17 01:33N 40°38' W 074°10'0 0.0
2016-Apr-17 00:33N 40°38' W 074°10'0 0.0
2016-Apr-16 23:30N 40°38' W 074°10'1 1.6
2016-Apr-16 22:33N 40°40' W 074°09'2 1.6
2016-Apr-16 21:29N 40°39' W 074°07'3 3.1
2016-Apr-16 20:33N 40°38' W 074°03'5 4.1
2016-Apr-16 19:22N 40°38' W 074°10'0 0.0
2016-Apr-16 18:30N 40°38' W 074°10'0 0.0
2016-Apr-16 17:33N 40°38' W 074°10'0 0.0
2016-Apr-16 16:34N 40°38' W 074°10'3 2.6
2016-Apr-16 15:33N 40°41' W 074°09'2 2.1
2016-Apr-16 14:23N 40°39' W 074°09'5 5.5
2016-Apr-16 13:34N 40°37' W 074°03'4 4.1
2016-Apr-16 12:34N 40°39' W 074°08'3 1.4
2016-Apr-16 10:33N 40°41' W 074°08'5 2.4
2016-Apr-16 08:34N 40°38' W 074°03'5 0.7
2016-Apr-16 01:04N 40°38' W 074°10'2 4.7
2016-Apr-16 00:33N 40°39' W 074°07'1 1.1
2016-Apr-15 23:34N 40°39' W 074°05'1 0.6
2016-Apr-15 22:33N 40°39' W 074°04'4 3.5
2016-Apr-15 21:34N 40°39' W 074°09'3 2.9
2016-Apr-15 20:34N 40°42' W 074°08'0 0.3
2016-Apr-15 19:33N 40°41' W 074°08'3 3.5
2016-Apr-15 18:34N 40°40' W 074°04'0 0.4
2016-Apr-15 17:34N 40°40' W 074°04'0 0.0
2016-Apr-15 16:34N 40°40' W 074°04'  
Track history (hours):
 
Tides and Currents Weather Stations Pressure Air Temp Water Temp Dewpoint Dewpoint Depression Visibility Wind Speed Wind Dir Waves Ship Positions

Robert E. Mcallister

Owner: McAllister Towing & Transportation, Staten Island, NY. More information available from US FCC via Universal Licensing System and Coast Guard Vessel Documentation Center.

Last reported at 2016-Apr-25 16:25 UTC. Time now 2016-May-02 05:51 UTC.
Position N 40°38' W 074°10'.

Length 34 m; draft 4.3 m.

Type: Tug. MMSI: 367091120.

Date/timePositionNaut miles runAvg speedWind from/ knotsBaromVisibWave heightAir tempDewpointWater temp
2016-Apr-25 16:25N 40°38' W 074°10'0 0.0
2016-Apr-25 15:32N 40°38' W 074°10'0 0.0
2016-Apr-25 14:29N 40°38' W 074°10'0 0.0
2016-Apr-25 13:33N 40°38' W 074°10'0 0.0
2016-Apr-25 12:30N 40°38' W 074°10'0 0.0
2016-Apr-25 11:29N 40°38' W 074°10'0 0.0
2016-Apr-25 10:33N 40°38' W 074°10'0 0.0
2016-Apr-25 09:33N 40°38' W 074°10'0 0.0
2016-Apr-25 08:33N 40°38' W 074°10'0 0.0
2016-Apr-25 07:25N 40°38' W 074°10'0 0.0
2016-Apr-25 06:33N 40°38' W 074°10'0 0.0
2016-Apr-25 05:32N 40°38' W 074°10'0 0.0
2016-Apr-25 04:22N 40°38' W 074°10'0 0.0
2016-Apr-25 03:33N 40°38' W 074°10'0 0.0
2016-Apr-25 02:33N 40°38' W 074°10'0 0.0
2016-Apr-25 01:31N 40°38' W 074°10'0 0.0
2016-Apr-25 00:31N 40°38' W 074°10'0 0.0
2016-Apr-24 23:30N 40°38' W 074°10'0 0.0
2016-Apr-24 22:32N 40°38' W 074°10'0 0.0
2016-Apr-24 20:22N 40°38' W 074°10'0 0.0
2016-Apr-24 19:26N 40°38' W 074°10'0 0.0
2016-Apr-24 18:31N 40°38' W 074°10'0 0.0
2016-Apr-24 17:27N 40°38' W 074°10'0 0.0
2016-Apr-24 16:33N 40°38' W 074°10'0 0.0
2016-Apr-24 15:33N 40°38' W 074°10'0 0.0
2016-Apr-24 14:23N 40°38' W 074°10'0 0.0
2016-Apr-24 13:32N 40°38' W 074°10'0 0.0
2016-Apr-24 12:32N 40°38' W 074°10'0 0.0
2016-Apr-24 11:29N 40°38' W 074°10'0 0.0
2016-Apr-24 03:22N 40°38' W 074°10'0 0.0
2016-Apr-23 22:05N 40°38' W 074°10'0 0.0
2016-Apr-23 21:33N 40°38' W 074°10'0 0.0
2016-Apr-23 20:33N 40°38' W 074°10'0 0.0
2016-Apr-23 19:33N 40°38' W 074°10'0 0.0
2016-Apr-23 18:33N 40°38' W 074°10'0 0.0
2016-Apr-23 17:33N 40°38' W 074°10'0 0.0
2016-Apr-23 16:33N 40°38' W 074°10'0 0.0
2016-Apr-23 15:33N 40°38' W 074°10'0 0.0
2016-Apr-23 14:33N 40°38' W 074°10'0 0.0
2016-Apr-23 13:25N 40°38' W 074°10'0 0.0
2016-Apr-23 12:33N 40°38' W 074°10'0 0.0
2016-Apr-22 20:27N 40°38' W 074°09'1 0.3
2016-Apr-22 16:32N 40°40' W 074°09'1 1.1
2016-Apr-22 15:33N 40°41' W 074°08'3 2.6
2016-Apr-22 14:33N 40°39' W 074°06'3 0.9
2016-Apr-22 11:27N 40°38' W 074°10'5 5.8
2016-Apr-22 10:33N 40°39' W 074°03'1 1.0
2016-Apr-22 09:33N 40°40' W 074°04'5 4.3
2016-Apr-22 08:30N 40°38' W 074°10'1 1.4
2016-Apr-22 07:33N 40°39' W 074°09'0 0.2
2016-Apr-22 06:33N 40°40' W 074°09'1 1.1
2016-Apr-22 05:33N 40°39' W 074°08'3 3.2
2016-Apr-22 04:33N 40°40' W 074°05'4 3.0
2016-Apr-22 03:11N 40°38' W 074°10'3 1.2
2016-Apr-22 00:33N 40°41' W 074°08'1 1.0
2016-Apr-21 23:33N 40°40' W 074°08'1 1.1
2016-Apr-21 22:32N 40°39' W 074°09'0 0.3
2016-Apr-21 21:29N 40°40' W 074°09'1 0.5
2016-Apr-21 18:31N 40°38' W 074°10'0 0.1
2016-Apr-21 16:20N 40°39' W 074°10'2 0.3
2016-Apr-21 11:32N 40°38' W 074°12'2 1.2
2016-Apr-21 10:14N 40°38' W 074°10'1 1.9
2016-Apr-21 09:33N 40°39' W 074°09'2 1.8
2016-Apr-21 08:28N 40°41' W 074°09'3 0.6
2016-Apr-21 03:27N 40°38' W 074°10'1 0.6
2016-Apr-21 02:31N 40°39' W 074°10'2 2.6
2016-Apr-21 01:33N 40°39' W 074°07'2 1.9
2016-Apr-21 00:33N 40°40' W 074°08'0 0.2
2016-Apr-20 23:33N 40°40' W 074°08'1 1.2
2016-Apr-20 22:33N 40°41' W 074°09'1 1.0
2016-Apr-20 21:33N 40°41' W 074°08'3 3.0
2016-Apr-20 20:33N 40°39' W 074°05'1 1.4
2016-Apr-20 19:33N 40°38' W 074°04'4 3.5
2016-Apr-20 18:17N 40°38' W 074°10'0 0.0
2016-Apr-20 17:30N 40°38' W 074°10'0 0.0
2016-Apr-20 16:33N 40°38' W 074°10'0 0.0
2016-Apr-20 15:33N 40°38' W 074°10'0 0.0
2016-Apr-20 14:32N 40°38' W 074°10'0 0.0
2016-Apr-20 13:33N 40°38' W 074°10'0 0.0
2016-Apr-20 12:31N 40°38' W 074°10'3 2.5
2016-Apr-20 11:26N 40°41' W 074°09'1 1.3
2016-Apr-20 10:33N 40°40' W 074°08'2 1.7
2016-Apr-20 09:33N 40°39' W 074°07'3 3.3
2016-Apr-20 08:32N 40°37' W 074°03'3 3.4
2016-Apr-20 07:33N 40°39' W 074°07'2 1.8
2016-Apr-20 06:20N 40°38' W 074°10'0 0.0
2016-Apr-20 05:30N 40°38' W 074°10'0 0.0
2016-Apr-20 02:26N 40°38' W 074°10'0 0.0
2016-Apr-20 01:33N 40°38' W 074°10'0 0.0
2016-Apr-20 00:31N 40°38' W 074°10'0 0.0
2016-Apr-19 23:31N 40°38' W 074°10'0 0.0
2016-Apr-19 22:31N 40°38' W 074°10'1 1.2
2016-Apr-19 21:32N 40°38' W 074°11'0 0.1
2016-Apr-19 20:33N 40°38' W 074°12'3 0.3
2016-Apr-19 12:21N 40°36' W 074°12'0 0.0
2016-Apr-19 11:32N 40°36' W 074°12'3 2.9
2016-Apr-19 10:31N 40°39' W 074°11'6 6.2
2016-Apr-19 09:33N 40°39' W 074°03'5 4.9
2016-Apr-19 08:33N 40°38' W 074°10'0 0.0
2016-Apr-19 07:32N 40°38' W 074°10'0 0.0
2016-Apr-19 06:33N 40°38' W 074°10'0 0.0
2016-Apr-19 05:33N 40°38' W 074°10'4 4.1
2016-Apr-19 04:33N 40°40' W 074°05'2 1.7
2016-Apr-19 03:33N 40°39' W 074°03'6 4.7
2016-Apr-19 02:13N 40°38' W 074°12'1 0.4
2016-Apr-18 23:22N 40°38' W 074°10'3 3.0
2016-Apr-18 22:31N 40°41' W 074°08'1 0.9
2016-Apr-18 21:03N 40°42' W 074°09'2 3.4
2016-Apr-18 20:23N 40°39' W 074°09'0 0.2
2016-Apr-18 19:33N 40°40' W 074°09'0 0.2
2016-Apr-18 18:16N 40°40' W 074°09'1 1.7
2016-Apr-18 17:33N 40°39' W 074°08'3 3.2
2016-Apr-18 16:33N 40°40' W 074°05'0 0.2
2016-Apr-18 15:33N 40°40' W 074°04'2 2.0
2016-Apr-18 14:33N 40°39' W 074°06'3 2.7
2016-Apr-18 13:33N 40°38' W 074°10'0 0.0
2016-Apr-18 12:33N 40°38' W 074°10'2 1.1
2016-Apr-18 10:25N 40°41' W 074°09'2 1.8
2016-Apr-18 09:18N 40°39' W 074°08'4 5.5
2016-Apr-18 08:34N 40°38' W 074°03'5 1.0
2016-Apr-18 03:16N 40°38' W 074°10'0 0.3
2016-Apr-18 01:31N 40°39' W 074°09'1 0.9
2016-Apr-18 00:34N 40°40' W 074°09'0 0.0
2016-Apr-17 23:34N 40°40' W 074°09'0 0.0
2016-Apr-17 22:34N 40°40' W 074°09'0 0.0
2016-Apr-17 21:32N 40°40' W 074°09'0 0.0
2016-Apr-17 16:34N 40°40' W 074°09'1 0.3
2016-Apr-17 14:33N 40°39' W 074°09'2 1.8
2016-Apr-17 13:33N 40°41' W 074°09'0 0.0
2016-Apr-17 12:33N 40°41' W 074°09'3 0.8
2016-Apr-17 08:03N 40°38' W 074°12'2 3.1
2016-Apr-17 07:34N 40°38' W 074°10'0 0.0
2016-Apr-17 06:33N 40°38' W 074°10'0 0.0
2016-Apr-17 05:33N 40°38' W 074°10'0 0.0
2016-Apr-17 04:33N 40°38' W 074°10'0 0.0
2016-Apr-17 03:33N 40°38' W 074°10'0 0.0
2016-Apr-17 02:31N 40°38' W 074°10'0 0.0
2016-Apr-17 01:33N 40°38' W 074°10'0 0.0
2016-Apr-17 00:33N 40°38' W 074°10'0 0.0
2016-Apr-16 23:30N 40°38' W 074°10'1 1.6
2016-Apr-16 22:33N 40°40' W 074°09'2 1.6
2016-Apr-16 21:29N 40°39' W 074°07'3 3.1
2016-Apr-16 20:33N 40°38' W 074°03'5 4.1
2016-Apr-16 19:22N 40°38' W 074°10'0 0.0
2016-Apr-16 18:30N 40°38' W 074°10'0 0.0
2016-Apr-16 17:33N 40°38' W 074°10'0 0.0
2016-Apr-16 16:34N 40°38' W 074°10'3 2.6
2016-Apr-16 15:33N 40°41' W 074°09'2 2.1
2016-Apr-16 14:23N 40°39' W 074°09'5 5.5
2016-Apr-16 13:34N 40°37' W 074°03'4 4.1
2016-Apr-16 12:34N 40°39' W 074°08'3 1.4
2016-Apr-16 10:33N 40°41' W 074°08'5 2.4
2016-Apr-16 08:34N 40°38' W 074°03'5 0.7
2016-Apr-16 01:04N 40°38' W 074°10'2 4.7
2016-Apr-16 00:33N 40°39' W 074°07'1 1.1
2016-Apr-15 23:34N 40°39' W 074°05'1 0.6
2016-Apr-15 22:33N 40°39' W 074°04'4 3.5
2016-Apr-15 21:34N 40°39' W 074°09'3 2.9
2016-Apr-15 20:34N 40°42' W 074°08'0 0.3
2016-Apr-15 19:33N 40°41' W 074°08'3 3.5
2016-Apr-15 18:34N 40°40' W 074°04'0 0.4
2016-Apr-15 17:34N 40°40' W 074°04'0 0.0
2016-Apr-15 16:34N 40°40' W 074°04'  

Dump ship's entire track history